Terminal Aerodrome Forecast
Issued by NWS

Home | Current Version | Previous Version | Text Only | Print | Product List | Glossary On
Versions: 1 2 3 4 5 6 7 8 9 10 11 12 13 14 15 16 17
000
FTUS42 KMLB 301135
TAFLEE
TAF
KLEE 301135Z 3012/0112 21004KT P6SM SCT250
     FM301400 22004KT P6SM VCTS SCT030CB SCT250
     FM301900 27005KT P6SM SCT040 SCT250
     FM010000 34003KT P6SM SCT250=

USA.gov is the U.S. government's official web portal to all federal, state and local government web resources and services.